Inhambane Airport


Codes: FQIN/INH
Name: Inhambane Airport
City: Inhambabe
Country: Mozambique
Elevation: 30 ft.
Wikipedia:

Photos at Inhambane Airport


   Photos courtesy of SpottingLog. You can add your own sightings and photos by signing up for a free trial today.



No photos found.

Weather at Inhambane Airport


Time (UTC)DescriptionTempratureWindCloud coverageVisibilityPressureHumidity
13-Jun-2024 03:00Clear Sky19°C4 mph, S1%10000m1023hPa69%
13-Jun-2024 06:00Clear Sky21°C4 mph, S0%10000m1024hPa62%
13-Jun-2024 09:00Clear Sky24°C9 mph, SE0%10000m1025hPa46%
13-Jun-2024 12:00Clear Sky24°C13 mph, S0%10000m1023hPa47%
13-Jun-2024 15:00Clear Sky21°C13 mph, S0%10000m1023hPa59%
13-Jun-2024 18:00Clear Sky19°C11 mph, S0%10000m1024hPa69%
13-Jun-2024 21:00Clear Sky19°C11 mph, S0%10000m1024hPa70%
14-Jun-2024 00:00Clear Sky19°C11 mph, S0%10000m1023hPa73%
14-Jun-2024 03:00Broken Clouds20°C11 mph, S57%10000m1023hPa75%
14-Jun-2024 06:00Light Rain22°C13 mph, S73%10000m1024hPa70%
14-Jun-2024 09:00Light Rain24°C16 mph, S80%10000m1024hPa64%
14-Jun-2024 12:00Light Rain24°C16 mph, S75%10000m1022hPa58%
14-Jun-2024 15:00Few Clouds22°C11 mph, S18%10000m1022hPa62%
14-Jun-2024 18:00Clear Sky20°C9 mph, S9%10000m1023hPa73%
14-Jun-2024 21:00Clear Sky20°C9 mph, S3%10000m1023hPa74%
15-Jun-2024 00:00Few Clouds21°C7 mph, S22%10000m1022hPa64%
15-Jun-2024 03:00Broken Clouds20°C7 mph, S67%10000m1022hPa68%
15-Jun-2024 06:00Broken Clouds22°C7 mph, S51%10000m1023hPa61%
15-Jun-2024 09:00Clear Sky25°C9 mph, SE3%10000m1023hPa51%
15-Jun-2024 12:00Clear Sky24°C9 mph, SE2%10000m1021hPa52%
15-Jun-2024 15:00Clear Sky22°C9 mph, SE1%10000m1021hPa64%
15-Jun-2024 18:00Clear Sky20°C7 mph, SE1%10000m1023hPa71%
15-Jun-2024 21:00Clear Sky20°C7 mph, SE0%10000m1023hPa72%
16-Jun-2024 00:00Clear Sky19°C4 mph, SE0%10000m1022hPa73%
16-Jun-2024 03:00Clear Sky18°C7 mph, S0%10000m1022hPa75%
16-Jun-2024 06:00Clear Sky21°C4 mph, S0%10000m1023hPa63%
16-Jun-2024 09:00Scattered Clouds24°C7 mph, SE44%10000m1022hPa54%
16-Jun-2024 12:00Broken Clouds24°C9 mph, SE58%10000m1020hPa52%
16-Jun-2024 15:00Few Clouds21°C7 mph, SE19%10000m1020hPa59%
16-Jun-2024 18:00Scattered Clouds20°C7 mph, S25%10000m1022hPa71%
16-Jun-2024 21:00Light Rain20°C7 mph, SE49%10000m1022hPa79%
17-Jun-2024 00:00Light Rain21°C7 mph, SE62%10000m1021hPa75%
17-Jun-2024 03:00Scattered Clouds20°C7 mph, S33%10000m1021hPa78%
17-Jun-2024 06:00Few Clouds22°C4 mph, S17%10000m1023hPa68%
17-Jun-2024 09:00Light Rain23°C7 mph, SE62%10000m1022hPa66%
17-Jun-2024 12:00Light Rain22°C4 mph, E81%10000m1020hPa75%
17-Jun-2024 15:00Light Rain21°C7 mph, E100%10000m1020hPa76%
17-Jun-2024 18:00Overcast Clouds21°C9 mph, E92%10000m1021hPa74%
17-Jun-2024 21:00Scattered Clouds21°C9 mph, NE42%10000m1021hPa74%
18-Jun-2024 00:00Few Clouds20°C7 mph, NE21%10000m1019hPa75%